Terminal Aerodrome Forecast
Issued by NWS

Home | Current Version | Previous Version | Graphics & Text | Print | Product List | Glossary On
Versions: 1 2 3 4 5 6 7 8 9 10 11 12 13 14 15 16 17
000
FTUS43 KBIS 242324
TAFDIK
TAF
KDIK 242324Z 2500/2524 29014G21KT P6SM VCSH BKN040
     FM250200 30015G21KT 6SM -SHRA BKN015
     FM250300 31020G30KT 5SM -SHRA OVC008
     FM250500 31025G35KT 3SM -SHRA OVC008
     FM250800 31027G37KT 6SM -SHRA OVC015
     FM251100 30023G33KT P6SM SCT045
     FM252300 31017G24KT P6SM SKC=

USA.gov is the U.S. government's official web portal to all federal, state and local government web resources and services.